Time;durP1;ratioP1;P1;durP2;ratioP2;P2;SDS_P1;SDS_P2;PMS_P1;PMS_P2;Temp;Humidity;BMP_temperature;BMP_pressure;BME280_temperature;BME280_humidity;BME280_pressure;Samples;Min_cycle;Max_cycle;Signal;HPM_P1;HPM_P2
2023/08/05 00:00:26;;;;;;;;;3.75;3.25;;;;;17.78;70.87;99263.91;5070956;28;45470;-61
2023/08/05 00:02:51;;;;;;;;;3.00;3.00;;;;;17.74;71.46;99243.75;5075126;27;45539;-62
2023/08/05 00:05:16;;;;;;;;;4.50;3.00;;;;;17.72;71.12;99243.00;5067920;27;45377;-59
2023/08/05 00:07:42;;;;;;;;;3.75;3.00;;;;;17.71;71.27;99258.16;5075018;28;45435;-62
2023/08/05 00:10:08;;;;;;;;;5.75;5.75;;;;;17.72;71.30;99243.00;5068244;28;45833;-62
2023/08/05 00:12:33;;;;;;;;;3.25;3.25;;;;;17.72;71.24;99245.66;5075132;28;45515;-62
2023/08/05 00:15:01;;;;;;;;;4.00;3.00;;;;;17.73;70.98;99271.38;5101242;27;45620;-59
2023/08/05 00:17:26;;;;;;;;;5.00;5.00;;;;;17.72;71.14;99262.53;5074996;28;45404;-62
2023/08/05 00:19:51;;;;;;;;;3.00;3.00;;;;;17.70;71.45;99277.78;5065611;27;45329;-59
2023/08/05 00:22:17;;;;;;;;;3.50;3.50;;;;;17.70;71.13;99261.78;5075001;28;46032;-61
2023/08/05 00:24:43;;;;;;;;;3.75;3.00;;;;;17.69;70.61;99273.41;5066080;28;45504;-61
2023/08/05 00:27:08;;;;;;;;;4.50;4.50;;;;;17.69;70.95;99270.72;5075558;28;45347;-61
2023/08/05 00:29:33;;;;;;;;;1.25;1.25;;;;;17.69;70.92;99254.72;5067468;28;45713;-60
2023/08/05 00:31:59;;;;;;;;;3.00;3.00;;;;;17.68;70.58;99263.69;5068089;28;46337;-61
2023/08/05 00:34:24;;;;;;;;;4.25;4.25;;;;;17.71;69.96;99260.81;5069186;28;45314;-60
2023/08/05 00:36:49;;;;;;;;;2.25;2.00;;;;;17.69;70.14;99251.19;5064613;28;45386;-61
2023/08/05 00:39:15;;;;;;;;;2.00;2.00;;;;;17.70;70.39;99256.44;5072320;28;45446;-60
2023/08/05 00:41:40;;;;;;;;;5.75;3.50;;;;;17.65;70.24;99261.22;5066003;28;45786;-60
2023/08/05 00:44:06;;;;;;;;;3.00;3.00;;;;;17.65;70.76;99265.69;5074574;27;45491;-60
2023/08/05 00:46:31;;;;;;;;;4.25;4.00;;;;;17.61;70.91;99261.47;5068368;28;45765;-60
2023/08/05 00:48:57;;;;;;;;;3.00;3.00;;;;;17.60;70.96;99249.09;5073713;27;45577;-60
2023/08/05 00:51:22;;;;;;;;;4.00;4.00;;;;;17.59;70.91;99266.09;5067236;28;45452;-60
2023/08/05 00:53:48;;;;;;;;;5.00;4.00;;;;;17.56;70.32;99255.63;5072600;28;45507;-61
2023/08/05 00:56:15;;;;;;;;;3.25;3.00;;;;;17.55;70.82;99249.44;5070850;28;45526;-61
2023/08/05 00:58:43;;;;;;;;;3.40;3.40;;;;;17.54;70.73;99247.72;5073087;28;45568;-60
2023/08/05 01:01:08;;;;;;;;;2.40;2.40;;;;;17.54;70.69;99253.06;5072167;28;45459;-61
2023/08/05 01:03:34;;;;;;;;;3.50;3.50;;;;;17.53;70.23;99245.16;5073034;27;45419;-61
2023/08/05 01:06:00;;;;;;;;;4.50;4.50;;;;;17.53;70.38;99248.69;5070368;28;45321;-60
2023/08/05 01:08:27;;;;;;;;;5.60;4.60;;;;;17.52;70.54;99236.31;5070989;28;45643;-61
2023/08/05 01:10:52;;;;;;;;;3.80;3.80;;;;;17.52;70.19;99235.44;5068240;28;46499;-61
2023/08/05 01:13:18;;;;;;;;;4.00;4.00;;;;;17.53;69.83;99238.00;5073823;28;45465;-61
2023/08/05 01:15:44;;;;;;;;;2.75;2.75;;;;;17.53;69.52;99234.50;5067060;28;45503;-61
2023/08/05 01:18:10;;;;;;;;;4.00;4.00;;;;;17.54;69.65;99229.06;5073695;28;45513;-60
2023/08/05 01:20:45;;;;;;;;;4.40;2.80;;;;;17.53;70.00;99230.00;5069623;28;46784;-61
2023/08/05 01:23:18;;;;;;;;;4.20;3.60;;;;;17.51;69.96;99229.25;5069662;28;45534;-61
2023/08/05 01:25:45;;;;;;;;;5.40;4.40;;;;;17.47;70.10;99227.75;5069798;28;45514;-61
2023/08/05 01:28:11;;;;;;;;;4.00;4.00;;;;;17.46;69.99;99228.69;5069799;28;45794;-60
2023/08/05 01:30:37;;;;;;;;;4.00;4.00;;;;;17.42;70.50;99228.06;5067484;28;46643;-61
2023/08/05 01:33:03;;;;;;;;;3.50;3.50;;;;;17.40;71.11;99221.13;5071471;28;45523;-61
2023/08/05 01:35:28;;;;;;;;;1.60;1.60;;;;;17.36;71.01;99223.13;5068732;28;45313;-60
2023/08/05 01:37:54;;;;;;;;;3.50;3.50;;;;;17.33;71.43;99242.00;5072670;27;45282;-61
2023/08/05 01:40:19;;;;;;;;;4.00;4.00;;;;;17.33;71.75;99220.66;5062575;27;46409;-60
2023/08/05 01:42:45;;;;;;;;;5.00;3.00;;;;;17.30;71.52;99220.00;5073858;28;45494;-60
2023/08/05 01:45:10;;;;;;;;;3.50;3.50;;;;;17.26;72.06;99223.88;5061112;28;45929;-61
2023/08/05 01:47:36;;;;;;;;;3.00;3.00;;;;;17.25;71.69;99227.47;5073028;28;45391;-61
2023/08/05 01:50:01;;;;;;;;;3.00;3.00;;;;;17.24;71.70;99239.09;5077407;27;46643;-60
2023/08/05 01:52:26;;;;;;;;;4.50;4.00;;;;;17.22;72.34;99220.53;5073307;28;45477;-61
2023/08/05 01:54:52;;;;;;;;;4.25;4.00;;;;;17.21;72.36;99234.81;5068045;28;45971;-61
2023/08/05 01:57:17;;;;;;;;;3.00;3.00;;;;;17.21;72.41;99255.28;5073788;28;45514;-61
2023/08/05 01:59:42;;;;;;;;;4.50;4.50;;;;;17.22;71.69;99231.19;5068890;27;46622;-61
2023/08/05 02:02:08;;;;;;;;;3.75;3.75;;;;;17.22;72.06;99225.88;5071989;28;45571;-61
2023/08/05 02:04:33;;;;;;;;;4.00;4.00;;;;;17.22;71.20;99249.00;5066783;28;45414;-61
2023/08/05 02:06:59;;;;;;;;;4.00;3.25;;;;;17.23;71.74;99240.03;5071841;28;45403;-60
2023/08/05 02:09:24;;;;;;;;;3.50;3.00;;;;;17.23;71.40;99251.56;5066431;28;45476;-61
2023/08/05 02:11:50;;;;;;;;;2.25;2.00;;;;;17.23;70.93;99240.91;5061369;27;45402;-61
2023/08/05 02:14:15;;;;;;;;;5.50;4.00;;;;;17.22;71.47;99249.00;5064789;28;45452;-61
2023/08/05 02:16:41;;;;;;;;;3.00;3.00;;;;;17.20;71.41;99225.09;5067556;28;45452;-61
2023/08/05 02:19:06;;;;;;;;;3.00;3.00;;;;;17.19;72.24;99241.19;5065365;28;45550;-61
2023/08/05 02:21:32;;;;;;;;;1.25;1.00;;;;;17.15;71.95;99234.34;5071088;28;45412;-60
2023/08/05 02:23:57;;;;;;;;;2.00;2.00;;;;;17.09;72.60;99239.09;5068784;28;45419;-61
2023/08/05 02:26:23;;;;;;;;;4.00;4.00;;;;;17.04;72.28;99217.25;5071934;28;45376;-65
2023/08/05 02:28:48;;;;;;;;;3.75;3.75;;;;;17.03;72.50;99220.03;5068689;28;46330;-60
2023/08/05 02:31:14;;;;;;;;;3.25;3.25;;;;;17.00;72.82;99215.75;5067727;27;45435;-60
2023/08/05 02:33:39;;;;;;;;;4.00;4.00;;;;;16.96;73.08;99214.22;5070788;28;45554;-61
2023/08/05 02:36:05;;;;;;;;;4.00;4.00;;;;;16.92;73.64;99217.22;5064787;28;45273;-60
2023/08/05 02:38:30;;;;;;;;;5.25;4.25;;;;;16.87;73.52;99213.97;5072648;28;46856;-60
2023/08/05 02:40:57;;;;;;;;;4.00;4.00;;;;;16.81;74.01;99211.69;5066404;28;45448;-60
2023/08/05 02:43:22;;;;;;;;;4.00;4.00;;;;;16.78;74.54;99220.72;5073249;28;45563;-61
2023/08/05 02:45:54;;;;;;;;;6.00;4.75;;;;;16.76;74.80;99219.16;5066682;27;45482;-60
2023/08/05 02:48:20;;;;;;;;;4.20;3.20;;;;;16.72;74.59;99222.00;5068553;28;46488;-60
2023/08/05 02:50:45;;;;;;;;;4.00;4.00;;;;;16.70;74.46;99217.72;5069097;28;45619;-60
2023/08/05 02:53:11;;;;;;;;;4.25;4.25;;;;;16.68;74.73;99219.63;5074089;28;45483;-60
2023/08/05 02:55:36;;;;;;;;;3.00;2.25;;;;;16.68;74.91;99224.94;5070416;27;45595;-61
2023/08/05 02:58:01;;;;;;;;;3.50;3.50;;;;;16.66;74.21;99218.84;5074929;28;45412;-61
2023/08/05 03:00:27;;;;;;;;;4.00;4.00;;;;;16.66;74.86;99225.03;5072142;27;45405;-60
2023/08/05 03:02:52;;;;;;;;;5.50;5.50;;;;;16.63;74.99;99227.88;5075660;28;45655;-60
2023/08/05 03:05:17;;;;;;;;;5.75;3.00;;;;;16.64;75.03;99218.94;5070178;27;45508;-60
2023/08/05 03:07:43;;;;;;;;;5.00;4.00;;;;;16.62;74.75;99215.50;5076359;27;46375;-60
2023/08/05 03:10:08;;;;;;;;;3.00;3.00;;;;;16.61;75.15;99218.25;5072841;27;45498;-61
2023/08/05 03:12:34;;;;;;;;;4.00;4.00;;;;;16.56;75.32;99212.38;5076576;28;45380;-60
2023/08/05 03:14:59;;;;;;;;;4.25;4.25;;;;;16.53;76.20;99205.44;5064866;27;45623;-60
2023/08/05 03:17:24;;;;;;;;;3.00;3.00;;;;;16.51;76.39;99214.47;5076133;27;46534;-61
2023/08/05 03:19:53;;;;;;;;;5.00;4.25;;;;;16.47;75.96;99223.59;5069008;27;45435;-60
2023/08/05 03:22:18;;;;;;;;;3.20;3.20;;;;;16.45;75.90;99213.03;5075759;28;45574;-60
2023/08/05 03:24:43;;;;;;;;;3.00;3.00;;;;;16.44;75.68;99227.28;5067656;28;45476;-60
2023/08/05 03:27:09;;;;;;;;;2.75;2.75;;;;;16.43;75.76;99244.22;5077025;27;45408;-60
2023/08/05 03:29:34;;;;;;;;;4.75;4.75;;;;;16.40;76.00;99224.00;5069671;28;45310;-60
2023/08/05 03:31:59;;;;;;;;;4.25;4.25;;;;;16.38;76.04;99223.22;5066344;28;45431;-60
2023/08/05 03:34:25;;;;;;;;;3.25;3.25;;;;;16.36;76.70;99218.94;5068025;28;45397;-60
2023/08/05 03:36:53;;;;;;;;;3.25;2.00;;;;;16.32;76.94;99226.25;5066770;28;46442;-60
2023/08/05 03:39:19;;;;;;;;;2.80;2.80;;;;;16.30;77.15;99206.88;5067919;28;45494;-60
2023/08/05 03:41:45;;;;;;;;;5.80;3.80;;;;;16.26;77.32;99226.63;5071967;28;45508;-60
2023/08/05 03:44:11;;;;;;;;;3.75;3.75;;;;;16.23;77.29;99213.53;5071738;27;45444;-60
2023/08/05 03:46:37;;;;;;;;;4.75;4.75;;;;;16.20;78.18;99240.31;5072394;28;45462;-60
2023/08/05 03:49:06;;;;;;;;;5.80;4.80;;;;;16.18;78.26;99223.59;5072720;28;45573;-60
2023/08/05 03:51:32;;;;;;;;;3.20;3.20;;;;;16.18;78.05;99228.06;5076305;28;45527;-60
2023/08/05 03:53:57;;;;;;;;;4.50;3.75;;;;;16.16;79.02;99244.09;5071130;27;45502;-61
2023/08/05 03:56:26;;;;;;;;;2.75;2.75;;;;;16.16;78.78;99237.94;5074566;28;45892;-60
2023/08/05 03:58:53;;;;;;;;;5.80;5.00;;;;;16.14;78.51;99231.84;5074301;27;45391;-61
2023/08/05 04:01:21;;;;;;;;;3.40;3.40;;;;;16.13;79.00;99236.31;5065747;28;45359;-60
2023/08/05 04:03:51;;;;;;;;;4.75;4.75;;;;;16.16;78.92;99233.47;5064339;28;45514;-60
2023/08/05 04:06:19;;;;;;;;;4.60;3.60;;;;;16.16;78.88;99237.94;5068876;28;46602;-61
2023/08/05 04:08:44;;;;;;;;;5.40;5.00;;;;;16.17;78.13;99232.53;5070639;27;45599;-60
2023/08/05 04:11:10;;;;;;;;;5.00;4.75;;;;;16.21;78.39;99236.72;5073755;28;45321;-60
2023/08/05 04:13:39;;;;;;;;;5.75;5.75;;;;;16.21;78.02;99233.19;5070917;27;45345;-61
2023/08/05 04:16:05;;;;;;;;;3.80;3.80;;;;;16.20;77.86;99220.84;5068769;28;45493;-60
2023/08/05 04:18:34;;;;;;;;;3.25;3.25;;;;;16.17;78.09;99239.66;5072515;28;45527;-60
2023/08/05 04:21:00;;;;;;;;;5.60;5.00;;;;;16.16;78.29;99214.84;5069826;28;45434;-60
2023/08/05 04:23:28;;;;;;;;;4.50;4.50;;;;;16.15;78.02;99214.94;5072211;27;45491;-61
2023/08/05 04:25:54;;;;;;;;;3.75;2.75;;;;;16.17;77.91;99200.59;5070447;28;46337;-61
2023/08/05 04:28:19;;;;;;;;;4.50;4.50;;;;;16.15;78.51;99226.44;5072637;28;45440;-61
2023/08/05 04:30:45;;;;;;;;;4.50;2.50;;;;;16.12;78.17;99217.78;5066907;28;45466;-61
2023/08/05 04:33:11;;;;;;;;;4.00;4.00;;;;;16.08;78.88;99214.47;5068140;28;45479;-60
2023/08/05 04:35:36;;;;;;;;;3.75;2.50;;;;;16.04;79.03;99224.44;5063996;28;46899;-61
2023/08/05 04:38:01;;;;;;;;;5.50;5.25;;;;;16.03;78.82;99219.22;5074908;28;45254;-61
2023/08/05 04:40:27;;;;;;;;;3.75;3.75;;;;;16.01;78.62;99216.66;5068628;27;45790;-61
2023/08/05 04:42:52;;;;;;;;;6.50;6.50;;;;;16.05;78.49;99233.28;5073628;28;45500;-60
2023/08/05 04:45:18;;;;;;;;;6.00;6.00;;;;;16.07;78.29;99226.06;5067326;27;46344;-61
2023/08/05 04:47:43;;;;;;;;;4.50;4.25;;;;;16.13;78.03;99238.13;5073709;28;45498;-63
2023/08/05 04:50:09;;;;;;;;;3.00;3.00;;;;;16.13;77.74;99228.31;5105786;27;45366;-61
2023/08/05 04:52:34;;;;;;;;;4.75;4.75;;;;;16.16;77.86;99221.97;5074854;28;45872;-61
2023/08/05 04:55:10;;;;;;;;;4.00;3.75;;;;;16.20;77.74;99220.84;5069899;27;45352;-61
2023/08/05 04:57:35;;;;;;;;;3.80;3.80;;;;;16.20;78.13;99223.50;5073933;28;45377;-60
2023/08/05 05:00:01;;;;;;;;;4.00;4.00;;;;;16.22;77.63;99250.88;5066392;27;45380;-60
2023/08/05 05:02:26;;;;;;;;;4.00;3.75;;;;;16.20;77.45;99215.53;5072870;28;45547;-60
2023/08/05 05:04:52;;;;;;;;;2.75;2.75;;;;;16.23;77.83;99236.63;5062998;27;45534;-60
2023/08/05 05:07:18;;;;;;;;;5.00;5.00;;;;;16.17;77.84;99227.19;5074501;28;45451;-60
2023/08/05 05:09:44;;;;;;;;;3.60;3.60;;;;;16.12;78.05;99215.97;5060952;28;45485;-61
2023/08/05 05:12:09;;;;;;;;;5.25;4.00;;;;;16.09;78.30;99213.50;5074020;28;45580;-60
2023/08/05 05:14:43;;;;;;;;;4.25;3.75;;;;;16.10;78.09;99249.78;5070561;28;45416;-60
2023/08/05 05:17:08;;;;;;;;;5.20;5.20;;;;;16.03;78.67;99219.22;5074232;27;45372;-61
2023/08/05 05:19:33;;;;;;;;;5.25;4.00;;;;;16.01;79.38;99216.66;5072983;28;45564;-61
2023/08/05 05:21:59;;;;;;;;;5.00;5.00;;;;;15.96;79.24;99224.03;5074659;28;45447;-61
2023/08/05 05:24:24;;;;;;;;;4.00;4.00;;;;;15.92;79.81;99227.00;5069035;28;46528;-60
2023/08/05 05:26:49;;;;;;;;;6.50;6.00;;;;;15.91;80.32;99243.91;5074095;28;45386;-61
2023/08/05 05:29:15;;;;;;;;;5.75;5.75;;;;;15.91;80.78;99244.75;5069852;28;45356;-61
2023/08/05 05:31:40;;;;;;;;;3.50;3.50;;;;;15.90;80.17;99242.19;5064183;28;45607;-60
2023/08/05 05:34:06;;;;;;;;;3.50;2.75;;;;;15.86;80.72;99238.84;5064113;27;46409;-60
2023/08/05 05:36:31;;;;;;;;;4.50;4.50;;;;;15.87;80.26;99226.41;5070792;28;45401;-61
2023/08/05 05:38:56;;;;;;;;;5.25;5.25;;;;;15.85;80.24;99242.44;5071822;28;45372;-61
2023/08/05 05:41:22;;;;;;;;;6.50;5.00;;;;;15.87;80.06;99219.28;5073609;28;45533;-60
2023/08/05 05:43:47;;;;;;;;;4.50;4.50;;;;;15.87;79.75;99223.75;5073874;28;45413;-61
2023/08/05 05:46:14;;;;;;;;;4.75;4.25;;;;;15.84;79.91;99226.59;5066445;28;45352;-60
2023/08/05 05:48:40;;;;;;;;;6.00;6.00;;;;;15.86;79.98;99230.00;5071615;28;45519;-60
2023/08/05 05:51:07;;;;;;;;;5.75;5.75;;;;;15.89;79.68;99232.50;5074341;28;45439;-60
2023/08/05 05:53:32;;;;;;;;;4.25;4.25;;;;;15.91;79.98;99238.56;5072950;27;47212;-60
2023/08/05 05:55:58;;;;;;;;;4.25;4.25;;;;;15.90;79.84;99240.38;5072408;28;45396;-60
2023/08/05 05:58:23;;;;;;;;;2.00;1.50;;;;;15.89;79.90;99243.97;5071162;28;45439;-61
2023/08/05 06:00:54;;;;;;;;;6.00;5.50;;;;;15.88;79.68;99246.72;5069949;28;45450;-61
2023/08/05 06:03:19;;;;;;;;;5.25;4.50;;;;;15.87;80.08;99243.22;5072857;28;46083;-61
2023/08/05 06:05:45;;;;;;;;;5.00;5.00;;;;;15.85;79.73;99233.63;5063335;28;45372;-61
2023/08/05 06:08:10;;;;;;;;;5.00;3.75;;;;;15.83;80.02;99227.53;5072665;28;45446;-61
2023/08/05 06:10:37;;;;;;;;;5.25;5.25;;;;;15.84;80.09;99240.72;5061221;27;45376;-61
2023/08/05 06:13:03;;;;;;;;;4.20;3.60;;;;;15.86;79.85;99241.50;5060945;28;46199;-61
2023/08/05 06:15:30;;;;;;;;;3.00;2.60;;;;;15.87;79.92;99239.69;5064349;27;45467;-61
2023/08/05 06:17:55;;;;;;;;;0.20;0.20;;;;;15.87;80.21;99237.03;5062449;28;45445;-61
2023/08/05 06:20:21;;;;;;;;;3.75;3.75;;;;;15.85;79.99;99242.44;5061125;28;45449;-61
2023/08/05 06:22:46;;;;;;;;;3.75;3.75;;;;;15.85;80.84;99249.56;5101209;27;47203;-61
2023/08/05 06:25:12;;;;;;;;;5.50;4.75;;;;;15.83;80.71;99256.78;5065305;27;45400;-61
2023/08/05 06:27:37;;;;;;;;;6.00;5.00;;;;;15.85;80.02;99258.41;5063655;27;45576;-62
2023/08/05 06:30:03;;;;;;;;;3.25;3.25;;;;;15.86;80.45;99273.41;5070439;28;45466;-60
2023/08/05 06:32:29;;;;;;;;;4.20;4.20;;;;;15.86;80.54;99257.44;5061551;28;45379;-61
2023/08/05 06:34:54;;;;;;;;;5.50;5.50;;;;;15.91;79.87;99252.72;5069049;28;45312;-61
2023/08/05 06:37:21;;;;;;;;;4.00;4.00;;;;;15.97;79.78;99251.47;5068589;28;45807;-60
2023/08/05 06:39:46;;;;;;;;;6.00;4.00;;;;;16.01;79.93;99243.25;5064806;28;45675;-61
2023/08/05 06:42:11;;;;;;;;;6.75;5.00;;;;;16.08;79.62;99248.19;5071457;27;45574;-61
2023/08/05 06:44:37;;;;;;;;;5.75;4.50;;;;;16.13;79.36;99232.78;5065554;28;45463;-61
2023/08/05 06:47:03;;;;;;;;;5.75;5.75;;;;;16.16;79.38;99238.78;5069673;28;45538;-61
2023/08/05 06:49:29;;;;;;;;;4.75;4.25;;;;;16.15;78.91;99231.75;5069131;28;45494;-62
2023/08/05 06:51:54;;;;;;;;;5.00;4.75;;;;;16.17;79.39;99234.31;5070597;27;45627;-62
2023/08/05 06:54:21;;;;;;;;;5.00;5.00;;;;;16.17;78.87;99236.97;5069179;28;45532;-62
2023/08/05 06:56:46;;;;;;;;;5.20;5.00;;;;;16.15;78.66;99261.00;5070635;28;45418;-62
2023/08/05 06:59:12;;;;;;;;;6.00;4.75;;;;;16.18;78.79;99230.72;5060083;28;45553;-62
2023/08/05 07:01:37;;;;;;;;;5.25;4.00;;;;;16.20;78.31;99235.00;5069133;28;46091;-62
2023/08/05 07:04:03;;;;;;;;;5.00;5.00;;;;;16.22;78.68;99229.59;5061839;28;45405;-60
2023/08/05 07:06:29;;;;;;;;;5.50;5.50;;;;;16.25;78.09;99218.75;5068184;28;45427;-62
2023/08/05 07:08:54;;;;;;;;;4.25;3.75;;;;;16.26;78.10;99234.59;5064672;28;45440;-63
2023/08/05 07:11:20;;;;;;;;;4.75;4.75;;;;;16.29;78.34;99226.44;5068957;28;45514;-61
2023/08/05 07:13:45;;;;;;;;;6.40;6.40;;;;;16.34;78.21;99242.13;5066175;28;45442;-61
2023/08/05 07:16:11;;;;;;;;;5.00;4.75;;;;;16.32;78.49;99223.59;5066067;28;45442;-61
2023/08/05 07:18:36;;;;;;;;;5.50;4.75;;;;;16.33;78.45;99257.22;5068256;28;45526;-61
2023/08/05 07:21:02;;;;;;;;;3.25;3.25;;;;;16.37;78.07;99225.97;5064270;28;46367;-61
2023/08/05 07:23:27;;;;;;;;;0.75;0.75;;;;;16.38;78.41;99255.16;5064814;28;45446;-61
2023/08/05 07:25:52;;;;;;;;;6.00;5.75;;;;;16.44;78.41;99231.75;5069004;28;45388;-60
2023/08/05 07:28:18;;;;;;;;;5.75;4.50;;;;;16.50;77.75;99231.38;5079608;27;45566;-61
2023/08/05 07:30:43;;;;;;;;;4.25;4.25;;;;;16.52;77.65;99225.03;5054682;28;46048;-61
2023/08/05 07:33:11;;;;;;;;;6.75;6.75;;;;;16.56;77.47;99233.69;5068573;27;45624;-61
2023/08/05 07:35:37;;;;;;;;;5.00;5.00;;;;;16.63;77.13;99246.53;5067006;27;45456;-61
2023/08/05 07:38:09;;;;;;;;;3.50;3.50;;;;;16.59;77.18;99250.28;5071609;28;45611;-63
2023/08/05 07:40:34;;;;;;;;;5.20;4.00;;;;;16.55;77.48;99240.81;5072615;28;48140;-62
2023/08/05 07:43:00;;;;;;;;;3.50;3.50;;;;;16.59;77.04;99234.31;5073230;28;45559;-61
2023/08/05 07:45:26;;;;;;;;;4.00;3.25;;;;;16.60;77.01;99212.06;5065987;27;45412;-62
2023/08/05 07:47:52;;;;;;;;;6.00;5.25;;;;;16.61;77.16;99215.59;5070401;27;45498;-62
2023/08/05 07:50:22;;;;;;;;;4.00;4.00;;;;;16.68;76.04;99207.16;5067042;28;46204;-62
2023/08/05 07:52:49;;;;;;;;;3.00;3.00;;;;;16.69;76.77;99205.34;5072284;27;45896;-62
2023/08/05 07:55:15;;;;;;;;;5.20;4.20;;;;;16.65;76.43;99215.34;5064291;28;45511;-62
2023/08/05 07:57:40;;;;;;;;;3.00;3.00;;;;;16.68;76.19;99217.81;5071006;28;45355;-61
2023/08/05 08:00:09;;;;;;;;;6.00;3.75;;;;;16.68;76.58;99185.00;5100243;27;46363;-60
2023/08/05 08:02:35;;;;;;;;;4.60;4.40;;;;;16.71;76.35;99206.13;5071922;27;45455;-62
2023/08/05 08:05:04;;;;;;;;;6.00;5.00;;;;;16.71;76.18;99203.44;5079339;27;45360;-62
2023/08/05 08:07:30;;;;;;;;;6.00;5.00;;;;;16.74;76.18;99187.28;5069472;27;45551;-62
2023/08/05 08:09:55;;;;;;;;;6.50;5.00;;;;;16.73;76.26;99210.41;5066297;28;46196;-62
2023/08/05 08:12:21;;;;;;;;;6.25;6.00;;;;;16.77;76.37;99175.56;5068343;28;45421;-62
2023/08/05 08:14:46;;;;;;;;;4.25;4.25;;;;;16.82;75.68;99171.66;5065534;28;45548;-62
2023/08/05 08:17:12;;;;;;;;;4.25;4.00;;;;;16.90;75.42;99201.31;5072801;28;45512;-62
2023/08/05 08:19:37;;;;;;;;;4.75;4.75;;;;;16.95;75.16;99185.03;5065894;28;46372;-62
2023/08/05 08:22:02;;;;;;;;;4.25;4.25;;;;;16.95;74.70;99193.88;5058059;28;45408;-62
2023/08/05 08:24:29;;;;;;;;;6.00;5.00;;;;;17.02;75.36;99183.69;5061829;27;45512;-60
2023/08/05 08:26:55;;;;;;;;;4.50;4.50;;;;;17.07;74.63;99205.56;5070544;28;45496;-61
2023/08/05 08:29:20;;;;;;;;;2.75;2.50;;;;;17.10;74.57;99203.53;5064614;28;46619;-61
2023/08/05 08:31:45;;;;;;;;;5.00;5.00;;;;;17.16;74.62;99199.63;5065727;28;45635;-61
2023/08/05 08:34:11;;;;;;;;;5.75;5.75;;;;;17.18;73.84;99215.50;5069251;28;45439;-62
2023/08/05 08:36:36;;;;;;;;;6.50;6.50;;;;;17.16;74.24;99191.63;5062914;27;45487;-61
2023/08/05 08:39:02;;;;;;;;;4.25;4.25;;;;;17.21;74.25;99191.31;5095776;27;47500;-62
2023/08/05 08:41:29;;;;;;;;;6.00;6.00;;;;;17.30;73.87;99164.06;5068225;28;45496;-62
2023/08/05 08:43:56;;;;;;;;;3.00;3.00;;;;;17.29;73.78;99157.00;5069941;28;45562;-62
2023/08/05 08:46:21;;;;;;;;;2.00;1.75;;;;;17.34;73.77;99154.91;5067590;28;45456;-61
2023/08/05 08:48:51;;;;;;;;;6.50;5.50;;;;;17.41;73.63;99132.22;5066937;27;45987;-61
2023/08/05 08:51:20;;;;;;;;;3.00;2.00;;;;;17.47;73.96;99163.78;5066288;28;45418;-63
2023/08/05 08:53:47;;;;;;;;;4.20;3.80;;;;;17.53;73.29;99175.84;5067343;27;45490;-62
2023/08/05 08:56:13;;;;;;;;;5.75;5.75;;;;;17.57;72.84;99138.22;5066492;27;45439;-62
2023/08/05 08:58:38;;;;;;;;;8.75;8.75;;;;;17.68;71.45;99148.16;5069017;28;45634;-62
2023/08/05 09:01:05;;;;;;;;;4.75;4.00;;;;;17.70;71.80;99146.25;5069723;27;45497;-62
2023/08/05 09:03:33;;;;;;;;;3.00;3.00;;;;;17.71;71.66;99161.31;5066640;28;45586;-62
2023/08/05 09:05:59;;;;;;;;;5.00;5.00;;;;;17.81;70.87;99145.50;5064855;28;45543;-62
2023/08/05 09:08:25;;;;;;;;;4.75;4.75;;;;;17.87;69.88;99153.94;5071518;27;46670;-62
2023/08/05 09:10:50;;;;;;;;;5.25;4.75;;;;;17.91;70.63;99150.13;5063887;28;45865;-62
2023/08/05 09:13:17;;;;;;;;;5.75;5.75;;;;;17.97;68.89;99162.16;5071637;27;45814;-62
2023/08/05 09:15:43;;;;;;;;;5.00;4.00;;;;;18.02;69.23;99144.88;5065070;28;45415;-62
2023/08/05 09:18:09;;;;;;;;;4.80;4.80;;;;;18.03;68.20;99148.41;5069147;27;46556;-62
2023/08/05 09:20:36;;;;;;;;;5.00;5.00;;;;;18.02;69.19;99138.69;5059483;28;45444;-62
2023/08/05 09:23:04;;;;;;;;;3.80;3.80;;;;;18.04;69.53;99131.44;5069969;27;45419;-62
2023/08/05 09:25:31;;;;;;;;;6.00;6.00;;;;;18.05;68.77;99173.16;5068358;28;45450;-62
2023/08/05 09:27:57;;;;;;;;;5.40;5.40;;;;;18.11;68.05;99144.22;5068276;27;45448;-62
2023/08/05 09:30:25;;;;;;;;;5.40;5.40;;;;;18.18;67.68;99115.28;5064636;28;45506;-62
2023/08/05 09:32:52;;;;;;;;;3.00;3.00;;;;;18.28;67.18;99115.47;5068787;28;45434;-62
2023/08/05 09:35:17;;;;;;;;;2.20;2.20;;;;;18.32;66.37;99125.81;5061026;28;45484;-62
2023/08/05 09:37:47;;;;;;;;;6.00;5.00;;;;;18.39;67.40;99132.44;5067113;28;46642;-62
2023/08/05 09:40:21;;;;;;;;;3.80;3.60;;;;;18.48;65.82;99098.88;5065211;28;45980;-62
2023/08/05 09:42:51;;;;;;;;;4.20;4.00;;;;;18.56;66.68;99087.66;5068347;28;45554;-62
2023/08/05 09:45:18;;;;;;;;;6.25;5.00;;;;;18.71;66.64;99084.75;5060176;28;45419;-62
2023/08/05 09:47:52;;;;;;;;;3.40;3.40;;;;;18.79;65.65;99093.03;5069445;28;46190;-62
2023/08/05 09:50:18;;;;;;;;;5.40;5.40;;;;;18.82;64.97;99092.78;5064723;28;45472;-62
2023/08/05 09:52:44;;;;;;;;;3.00;3.00;;;;;18.90;64.95;99083.38;5070944;27;45808;-62
2023/08/05 09:55:16;;;;;;;;;4.00;3.00;;;;;18.97;64.29;99114.00;5071662;27;45549;-62
2023/08/05 09:57:42;;;;;;;;;4.00;4.00;;;;;18.98;63.74;99092.50;5070832;27;45539;-62
2023/08/05 10:00:11;;;;;;;;;1.60;1.60;;;;;19.04;63.10;99113.44;5062936;27;45478;-62
2023/08/05 10:02:37;;;;;;;;;3.20;3.20;;;;;19.07;63.62;99123.03;5077008;27;45475;-62
2023/08/05 10:05:03;;;;;;;;;2.00;2.00;;;;;19.09;63.26;99073.00;5058321;27;45662;-62
2023/08/05 10:07:29;;;;;;;;;2.00;2.00;;;;;19.07;62.25;99062.44;5066891;27;45553;-62
2023/08/05 10:09:55;;;;;;;;;1.80;1.80;;;;;19.13;62.28;99086.00;5063731;28;45555;-58
2023/08/05 10:12:25;;;;;;;;;3.60;3.60;;;;;19.16;62.73;99067.06;5069049;28;45479;-59
2023/08/05 10:14:54;;;;;;;;;4.20;3.20;;;;;19.24;62.70;99084.34;5062145;28;45536;-59
2023/08/05 10:17:20;;;;;;;;;2.40;2.40;;;;;19.30;61.95;99070.50;5070615;28;46280;-58
2023/08/05 10:19:47;;;;;;;;;0.60;0.60;;;;;19.34;61.22;99061.28;5071091;28;45420;-58
2023/08/05 10:22:13;;;;;;;;;4.00;4.00;;;;;19.39;61.04;99068.00;5071346;28;45466;-59
2023/08/05 10:24:59;;;;;;;;;2.00;2.00;;;;;19.43;60.78;99039.19;5066438;27;45439;-57
2023/08/05 10:27:34;;;;;;;;;1.60;1.20;;;;;19.52;59.97;99049.19;5071092;27;45574;-58
2023/08/05 10:30:08;;;;;;;;;3.60;3.60;;;;;19.58;60.44;99050.56;5071407;28;45486;-58
2023/08/05 10:32:35;;;;;;;;;4.80;3.60;;;;;19.68;60.73;99073.78;5070949;28;45463;-59
2023/08/05 10:35:28;;;;;;;;;4.00;4.00;;;;;19.74;60.18;99072.47;5071131;27;45538;-58
2023/08/05 10:38:13;;;;;;;;;3.40;2.60;;;;;19.74;59.92;99037.69;5070730;28;45481;-58
2023/08/05 10:40:51;;;;;;;;;2.20;2.20;;;;;19.78;59.75;99068.53;5071145;28;45654;-59
2023/08/05 10:43:30;;;;;;;;;4.20;4.00;;;;;19.85;58.80;99067.94;5071453;28;45574;-59
2023/08/05 10:45:56;;;;;;;;;3.40;3.40;;;;;19.91;58.80;99049.72;5070991;27;45616;-59
2023/08/05 10:48:47;;;;;;;;;4.80;4.80;;;;;20.01;57.86;99051.53;5070997;28;45663;-60
2023/08/05 10:51:20;;;;;;;;;4.00;4.00;;;;;20.05;58.60;99033.41;5059189;28;45435;-59
2023/08/05 10:53:52;;;;;;;;;3.40;3.20;;;;;20.12;59.18;99018.53;5070787;27;45548;-59
2023/08/05 10:56:18;;;;;;;;;3.80;3.80;;;;;20.25;57.92;99045.19;5071368;28;45443;-59
2023/08/05 10:58:48;;;;;;;;;2.80;2.80;;;;;20.33;57.41;99029.34;5070375;28;45496;-58
2023/08/05 11:01:14;;;;;;;;;6.00;5.00;;;;;20.40;57.36;99019.88;5070892;27;45538;-59
2023/08/05 11:03:43;;;;;;;;;5.00;4.00;;;;;20.43;57.32;99030.34;5071501;28;45384;-56
2023/08/05 11:06:10;;;;;;;;;5.00;3.20;;;;;20.52;56.99;99038.47;5071121;27;45627;-57
2023/08/05 11:08:38;;;;;;;;;4.00;3.20;;;;;20.57;57.20;99040.78;5071131;27;46083;-56
2023/08/05 11:11:06;;;;;;;;;4.00;4.00;;;;;20.59;58.01;99012.03;5073793;28;45448;-60
2023/08/05 11:13:38;;;;;;;;;4.60;4.60;;;;;20.61;56.58;99022.63;5074762;27;45582;-54
2023/08/05 11:16:05;;;;;;;;;4.80;4.80;;;;;20.66;56.04;99033.78;5074549;28;45391;-58
2023/08/05 11:18:31;;;;;;;;;3.00;3.00;;;;;20.72;56.27;99042.19;5074659;27;46469;-58
2023/08/05 11:20:58;;;;;;;;;2.00;2.00;;;;;20.79;55.46;99050.53;5075051;28;45450;-54
2023/08/05 11:23:24;;;;;;;;;4.00;3.40;;;;;20.78;54.96;99020.22;5074812;28;45712;-59
2023/08/05 11:25:51;;;;;;;;;2.00;2.00;;;;;20.77;54.83;99061.41;5074466;28;45537;-59
2023/08/05 11:28:16;;;;;;;;;4.00;4.00;;;;;20.78;55.91;99019.38;5074622;27;45503;-59
2023/08/05 11:30:42;;;;;;;;;3.75;2.75;;;;;20.79;55.86;99000.47;5074350;28;45415;-59